TFL074P EHEH-EHAM
Flight info
| Callsign | TFL074P |
|---|---|
| Flight time | 0h 27m |
| Altitude | 6000 |
| Route | PESER |
| Aircraft | B38M/M-SDE2E3FGHIRWXY/LB1 |
Departure
| Time | 2026-05-05 18:28 |
|---|---|
| Airport | Eindhoven Airport (EHEH) |
Arrival
| Time | 2026-05-05 18:55 |
|---|---|
| Airport | Amsterdam Airport Schiphol (EHAM) |
| Time | Latitude | Longitude | Altitude | Speed | Heading |
|---|---|---|---|---|---|
| 2026-05-05 18:03 | 51.45649 | 5.38821 | 67 ft | 0 kts | 125° |
| 2026-05-05 18:17 | 51.45650 | 5.38819 | 101 ft | 2 kts | 125° |
| 2026-05-05 18:17 | 51.45658 | 5.38800 | 65 ft | 2 kts | 125° |
| 2026-05-05 18:18 | 51.45666 | 5.38782 | 69 ft | 2 kts | 125° |
| 2026-05-05 18:18 | 51.45674 | 5.38763 | 65 ft | 2 kts | 125° |
| 2026-05-05 18:18 | 51.45683 | 5.38745 | 66 ft | 2 kts | 115° |
| 2026-05-05 18:18 | 51.45687 | 5.38723 | 69 ft | 2 kts | 79° |
| 2026-05-05 18:19 | 51.45681 | 5.38705 | 63 ft | 0 kts | 35° |
| 2026-05-05 18:22 | 51.45688 | 5.38712 | 63 ft | 3 kts | 35° |
| 2026-05-05 18:22 | 51.45724 | 5.38755 | 71 ft | 10 kts | 37° |
| 2026-05-05 18:22 | 51.45791 | 5.38776 | 74 ft | 12 kts | 324° |
| 2026-05-05 18:22 | 51.45843 | 5.38662 | 71 ft | 14 kts | 305° |
| 2026-05-05 18:23 | 51.45908 | 5.38515 | 73 ft | 18 kts | 306° |
| 2026-05-05 18:23 | 51.45983 | 5.38348 | 65 ft | 10 kts | 305° |
| 2026-05-05 18:23 | 51.45976 | 5.38251 | 69 ft | 12 kts | 216° |
| 2026-05-05 18:23 | 51.45890 | 5.38153 | 71 ft | 19 kts | 215° |
| 2026-05-05 18:24 | 51.45758 | 5.38003 | 70 ft | 27 kts | 215° |
| 2026-05-05 18:24 | 51.45596 | 5.37822 | 69 ft | 29 kts | 214° |
| 2026-05-05 18:24 | 51.45437 | 5.37646 | 74 ft | 27 kts | 214° |
| 2026-05-05 18:24 | 51.45290 | 5.37482 | 67 ft | 25 kts | 215° |
| 2026-05-05 18:25 | 51.45155 | 5.37331 | 69 ft | 23 kts | 215° |
| 2026-05-05 18:25 | 51.45071 | 5.37236 | 69 ft | 22 kts | 215° |
| 2026-05-05 18:25 | 51.44923 | 5.37071 | 72 ft | 14 kts | 214° |
| 2026-05-05 18:25 | 51.44848 | 5.36986 | 72 ft | 13 kts | 215° |
| 2026-05-05 18:26 | 51.44801 | 5.36971 | 74 ft | 5 kts | 149° |
| 2026-05-05 18:26 | 51.44775 | 5.37011 | 72 ft | 5 kts | 134° |
| 2026-05-05 18:26 | 51.44740 | 5.37068 | 75 ft | 9 kts | 135° |
| 2026-05-05 18:26 | 51.44723 | 5.37124 | 74 ft | 5 kts | 59° |
| 2026-05-05 18:27 | 51.44736 | 5.37140 | 73 ft | 0 kts | 35° |
| 2026-05-05 18:28 | 51.45499 | 5.37993 | 113 ft | 141 kts | 34° |
| 2026-05-05 18:28 | 51.46367 | 5.38954 | 748 ft | 159 kts | 34° |
| 2026-05-05 18:28 | 51.47285 | 5.39970 | 1746 ft | 159 kts | 34° |
| 2026-05-05 18:29 | 51.48298 | 5.41086 | 2474 ft | 186 kts | 34° |
| 2026-05-05 18:29 | 51.49410 | 5.42298 | 3210 ft | 209 kts | 34° |
| 2026-05-05 18:29 | 51.50681 | 5.43684 | 4059 ft | 225 kts | 34° |
| 2026-05-05 18:29 | 51.51968 | 5.45072 | 5388 ft | 225 kts | 34° |
| 2026-05-05 18:30 | 51.53368 | 5.46225 | 5741 ft | 229 kts | 10° |
| 2026-05-05 18:30 | 51.54968 | 5.45806 | 5864 ft | 255 kts | 333° |
| 2026-05-05 18:30 | 51.56235 | 5.43699 | 5862 ft | 274 kts | 298° |
| 2026-05-05 18:30 | 51.56542 | 5.40684 | 5868 ft | 280 kts | 263° |
| 2026-05-05 18:31 | 51.56152 | 5.37611 | 5873 ft | 281 kts | 257° |
| 2026-05-05 18:31 | 51.55365 | 5.34729 | 5868 ft | 283 kts | 240° |
| 2026-05-05 18:31 | 51.54346 | 5.32014 | 5857 ft | 284 kts | 240° |
| 2026-05-05 18:31 | 51.53376 | 5.29252 | 5842 ft | 284 kts | 243° |
| 2026-05-05 18:32 | 51.52464 | 5.26438 | 5851 ft | 283 kts | 244° |
| 2026-05-05 18:32 | 51.51585 | 5.23611 | 5856 ft | 282 kts | 245° |
| 2026-05-05 18:32 | 51.51091 | 5.20619 | 5849 ft | 278 kts | 274° |
| 2026-05-05 18:32 | 51.51649 | 5.17731 | 5876 ft | 271 kts | 301° |
| 2026-05-05 18:33 | 51.52614 | 5.15135 | 5883 ft | 271 kts | 303° |
| 2026-05-05 18:33 | 51.53616 | 5.12577 | 5879 ft | 271 kts | 304° |
| 2026-05-05 18:33 | 51.54624 | 5.10022 | 5882 ft | 270 kts | 304° |
| 2026-05-05 18:33 | 51.55627 | 5.07470 | 5877 ft | 270 kts | 304° |
| 2026-05-05 18:34 | 51.56625 | 5.04917 | 5882 ft | 269 kts | 304° |
| 2026-05-05 18:34 | 51.57617 | 5.02364 | 5883 ft | 269 kts | 303° |
| 2026-05-05 18:34 | 51.58605 | 4.99809 | 5876 ft | 269 kts | 303° |
| 2026-05-05 18:34 | 51.59591 | 4.97254 | 5886 ft | 269 kts | 303° |
| 2026-05-05 18:35 | 51.60572 | 4.94703 | 5886 ft | 269 kts | 303° |
| 2026-05-05 18:35 | 51.61559 | 4.92133 | 5881 ft | 270 kts | 303° |
| 2026-05-05 18:35 | 51.62542 | 4.89566 | 5887 ft | 270 kts | 304° |
| 2026-05-05 18:35 | 51.63528 | 4.86990 | 5889 ft | 270 kts | 304° |
| 2026-05-05 18:36 | 51.64513 | 4.84410 | 5887 ft | 271 kts | 303° |
| 2026-05-05 18:36 | 51.65498 | 4.81826 | 5879 ft | 271 kts | 303° |
| 2026-05-05 18:36 | 51.66484 | 4.79240 | 5876 ft | 271 kts | 303° |
| 2026-05-05 18:36 | 51.67467 | 4.76656 | 5878 ft | 270 kts | 303° |
| 2026-05-05 18:37 | 51.68446 | 4.74079 | 5885 ft | 270 kts | 302° |
| 2026-05-05 18:37 | 51.69430 | 4.71487 | 5883 ft | 271 kts | 302° |
| 2026-05-05 18:37 | 51.70410 | 4.68904 | 5883 ft | 271 kts | 302° |
| 2026-05-05 18:37 | 51.71395 | 4.66306 | 5879 ft | 271 kts | 303° |
| 2026-05-05 18:38 | 51.72376 | 4.63713 | 5878 ft | 271 kts | 302° |
| 2026-05-05 18:38 | 51.73356 | 4.61120 | 5876 ft | 271 kts | 302° |
| 2026-05-05 18:38 | 51.74335 | 4.58531 | 5890 ft | 271 kts | 302° |
| 2026-05-05 18:38 | 51.75315 | 4.55934 | 5880 ft | 271 kts | 302° |
| 2026-05-05 18:39 | 51.76295 | 4.53335 | 5889 ft | 271 kts | 303° |
| 2026-05-05 18:39 | 51.77273 | 4.50738 | 5882 ft | 271 kts | 303° |
| 2026-05-05 18:39 | 51.78251 | 4.48137 | 5884 ft | 271 kts | 303° |
| 2026-05-05 18:39 | 51.79227 | 4.45541 | 5882 ft | 271 kts | 302° |
| 2026-05-05 18:40 | 51.79871 | 4.43823 | 5879 ft | 271 kts | 302° |
| 2026-05-05 18:40 | 51.80848 | 4.41222 | 5883 ft | 271 kts | 303° |
| 2026-05-05 18:40 | 51.81824 | 4.38618 | 5883 ft | 270 kts | 303° |
| 2026-05-05 18:40 | 51.83117 | 4.35166 | 5887 ft | 271 kts | 303° |
| 2026-05-05 18:41 | 51.84090 | 4.32563 | 5881 ft | 271 kts | 303° |
| 2026-05-05 18:41 | 51.85063 | 4.29959 | 5878 ft | 270 kts | 303° |
| 2026-05-05 18:41 | 51.85721 | 4.28197 | 5884 ft | 270 kts | 303° |
| 2026-05-05 18:41 | 51.86684 | 4.25613 | 5877 ft | 265 kts | 303° |
| 2026-05-05 18:42 | 51.87603 | 4.23143 | 5868 ft | 248 kts | 303° |
| 2026-05-05 18:42 | 51.88471 | 4.20808 | 5870 ft | 238 kts | 303° |
| 2026-05-05 18:42 | 51.89322 | 4.18520 | 5882 ft | 237 kts | 303° |
| 2026-05-05 18:42 | 51.90366 | 4.16551 | 5878 ft | 233 kts | 329° |
| 2026-05-05 18:43 | 51.91893 | 4.15750 | 5891 ft | 230 kts | 359° |
| 2026-05-05 18:43 | 51.93441 | 4.16282 | 5891 ft | 230 kts | 26° |
| 2026-05-05 18:43 | 51.94773 | 4.17703 | 5896 ft | 230 kts | 37° |
| 2026-05-05 18:43 | 51.96121 | 4.19013 | 5874 ft | 231 kts | 15° |
| 2026-05-05 18:44 | 51.97689 | 4.19553 | 5889 ft | 231 kts | 12° |
| 2026-05-05 18:44 | 51.99267 | 4.20097 | 5885 ft | 232 kts | 12° |
| 2026-05-05 18:44 | 52.00845 | 4.20650 | 5893 ft | 232 kts | 12° |
| 2026-05-05 18:44 | 52.02421 | 4.21206 | 5890 ft | 232 kts | 12° |
| 2026-05-05 18:45 | 52.04002 | 4.21762 | 5897 ft | 232 kts | 12° |
| 2026-05-05 18:45 | 52.05579 | 4.22317 | 5796 ft | 233 kts | 12° |
| 2026-05-05 18:45 | 52.07161 | 4.22872 | 5610 ft | 229 kts | 12° |
| 2026-05-05 18:45 | 52.08696 | 4.23406 | 5417 ft | 224 kts | 12° |
| 2026-05-05 18:46 | 52.10218 | 4.23927 | 5243 ft | 224 kts | 12° |
| 2026-05-05 18:46 | 52.11748 | 4.24440 | 5080 ft | 223 kts | 12° |
| 2026-05-05 18:46 | 52.13263 | 4.24936 | 4898 ft | 221 kts | 12° |
| 2026-05-05 18:46 | 52.14768 | 4.25420 | 4720 ft | 220 kts | 12° |
| 2026-05-05 18:47 | 52.16266 | 4.25894 | 4533 ft | 219 kts | 12° |
| 2026-05-05 18:47 | 52.17761 | 4.26362 | 4351 ft | 218 kts | 12° |
| 2026-05-05 18:47 | 52.19216 | 4.26970 | 4152 ft | 216 kts | 29° |
| 2026-05-05 18:47 | 52.20176 | 4.28764 | 3957 ft | 216 kts | 69° |
| 2026-05-05 18:48 | 52.20246 | 4.31203 | 3818 ft | 218 kts | 92° |
| 2026-05-05 18:48 | 52.20095 | 4.33648 | 3683 ft | 216 kts | 92° |
| 2026-05-05 18:48 | 52.19942 | 4.36074 | 3549 ft | 214 kts | 92° |
| 2026-05-05 18:48 | 52.19784 | 4.38487 | 3414 ft | 215 kts | 92° |
| 2026-05-05 18:49 | 52.19626 | 4.40925 | 3293 ft | 218 kts | 92° |
| 2026-05-05 18:49 | 52.19472 | 4.43386 | 3181 ft | 217 kts | 92° |
| 2026-05-05 18:49 | 52.19322 | 4.45788 | 3028 ft | 209 kts | 92° |
| 2026-05-05 18:49 | 52.19271 | 4.48084 | 2866 ft | 197 kts | 75° |
| 2026-05-05 18:50 | 52.19886 | 4.49961 | 2751 ft | 183 kts | 54° |
| 2026-05-05 18:50 | 52.20542 | 4.51706 | 2604 ft | 178 kts | 57° |
| 2026-05-05 18:50 | 52.21167 | 4.53408 | 2478 ft | 172 kts | 56° |
| 2026-05-05 18:50 | 52.21780 | 4.55036 | 2339 ft | 166 kts | 55° |
| 2026-05-05 18:51 | 52.22381 | 4.56619 | 2204 ft | 162 kts | 55° |
| 2026-05-05 18:51 | 52.22959 | 4.58137 | 2084 ft | 153 kts | 56° |
| 2026-05-05 18:51 | 52.23502 | 4.59564 | 1997 ft | 147 kts | 55° |
| 2026-05-05 18:51 | 52.24036 | 4.60962 | 1847 ft | 143 kts | 55° |
| 2026-05-05 18:52 | 52.24558 | 4.62331 | 1652 ft | 142 kts | 55° |
| 2026-05-05 18:52 | 52.25079 | 4.63696 | 1448 ft | 143 kts | 55° |
| 2026-05-05 18:52 | 52.25602 | 4.65065 | 1249 ft | 136 kts | 55° |
| 2026-05-05 18:52 | 52.26075 | 4.66307 | 1058 ft | 121 kts | 55° |
| 2026-05-05 18:53 | 52.26488 | 4.67388 | 916 ft | 105 kts | 54° |
| 2026-05-05 18:53 | 52.26860 | 4.68361 | 781 ft | 101 kts | 54° |
| 2026-05-05 18:53 | 52.27250 | 4.69380 | 675 ft | 110 kts | 54° |
| 2026-05-05 18:53 | 52.27651 | 4.70437 | 517 ft | 110 kts | 54° |
| 2026-05-05 18:54 | 52.28054 | 4.71489 | 331 ft | 107 kts | 55° |
| 2026-05-05 18:54 | 52.28438 | 4.72503 | 190 ft | 104 kts | 52° |
| 2026-05-05 18:54 | 52.28823 | 4.73490 | 46 ft | 106 kts | 55° |
| 2026-05-05 18:54 | 52.29207 | 4.74492 | 1 ft | 93 kts | 57° |
| 2026-05-05 18:55 | 52.29507 | 4.75268 | -4 ft | 71 kts | 58° |
| 2026-05-05 18:55 | 52.29743 | 4.75889 | -5 ft | 58 kts | 58° |
| 2026-05-05 18:55 | 52.29929 | 4.76372 | -8 ft | 34 kts | 55° |
| 2026-05-05 18:55 | 52.30050 | 4.76559 | -4 ft | 20 kts | 25° |
| 2026-05-05 18:56 | 52.30168 | 4.76659 | -3 ft | 17 kts | 28° |
| 2026-05-05 18:56 | 52.30266 | 4.76745 | -4 ft | 15 kts | 28° |
| 2026-05-05 18:56 | 52.30330 | 4.76873 | -4 ft | 14 kts | 58° |
| 2026-05-05 18:56 | 52.30383 | 4.77009 | -4 ft | 14 kts | 57° |
| 2026-05-05 18:57 | 52.30436 | 4.77148 | -4 ft | 15 kts | 58° |
| 2026-05-05 18:57 | 52.30495 | 4.77305 | -4 ft | 17 kts | 58° |
| 2026-05-05 18:57 | 52.30558 | 4.77458 | -3 ft | 16 kts | 56° |
| 2026-05-05 18:57 | 52.30631 | 4.77566 | -3 ft | 14 kts | 27° |
| 2026-05-05 18:58 | 52.30732 | 4.77595 | -3 ft | 15 kts | 4° |
| 2026-05-05 18:58 | 52.30795 | 4.77602 | -3 ft | 3 kts | 2° |
| 2026-05-05 18:58 | 52.30798 | 4.77602 | -3 ft | 0 kts | 2° |
| 2026-05-05 18:59 | 52.30806 | 4.77601 | -3 ft | 3 kts | 353° |
| 2026-05-05 18:59 | 52.30831 | 4.77555 | -3 ft | 9 kts | 280° |
| 2026-05-05 18:59 | 52.30802 | 4.77471 | -3 ft | 10 kts | 198° |
| 2026-05-05 18:59 | 52.30733 | 4.77459 | -3 ft | 11 kts | 184° |
| 2026-05-05 19:00 | 52.30661 | 4.77441 | -3 ft | 11 kts | 211° |
| 2026-05-05 19:00 | 52.30637 | 4.77311 | -3 ft | 14 kts | 271° |
| 2026-05-05 19:00 | 52.30643 | 4.77149 | -3 ft | 14 kts | 274° |
| 2026-05-05 19:00 | 52.30651 | 4.76994 | -3 ft | 13 kts | 278° |
| 2026-05-05 19:01 | 52.30673 | 4.76858 | -3 ft | 10 kts | 313° |
| 2026-05-05 19:01 | 52.30719 | 4.76865 | -3 ft | 7 kts | 35° |
| 2026-05-05 19:01 | 52.30740 | 4.76890 | -3 ft | 2 kts | 36° |
| 2026-05-05 19:01 | 52.30742 | 4.76892 | -3 ft | 0 kts | 36° |